createdAt,value
2022-12-26T00:00:38.622Z,7.53
2022-12-26T00:03:06.485Z,7.95
2022-12-26T00:05:37.245Z,6.72
2022-12-26T00:08:04.961Z,7.70
2022-12-26T00:10:32.653Z,7.57
2022-12-26T00:13:37.440Z,7.78
2022-12-26T00:15:48.281Z,7.97
2022-12-26T00:18:15.650Z,8.07
2022-12-26T00:20:43.280Z,7.62
2022-12-26T00:23:11.030Z,8.10
2022-12-26T00:25:38.495Z,7.97
2022-12-26T00:28:05.851Z,9.48
2022-12-26T00:30:33.560Z,8.43
2022-12-26T00:33:00.908Z,7.78
2022-12-26T00:35:28.281Z,8.43
2022-12-26T00:37:55.954Z,8.40
2022-12-26T00:40:23.301Z,9.00
2022-12-26T00:42:50.662Z,7.60
2022-12-26T00:45:18.446Z,8.77
2022-12-26T00:47:46.009Z,9.52
2022-12-26T00:50:15.841Z,9.82
2022-12-26T00:52:43.980Z,9.05
2022-12-26T00:55:11.338Z,8.75
2022-12-26T00:57:38.686Z,10.02
2022-12-26T01:00:07.179Z,10.15
2022-12-26T01:02:40.429Z,10.48
2022-12-26T01:05:10.310Z,10.38
2022-12-26T01:08:20.422Z,9.70
2022-12-26T01:10:27.694Z,9.25
2022-12-26T01:12:55.372Z,10.65
2022-12-26T01:15:22.841Z,10.55
2022-12-26T01:17:50.682Z,10.30
2022-12-26T01:20:18.157Z,10.85
2022-12-26T01:22:45.561Z,15.00
2022-12-26T01:25:13.313Z,14.27
2022-12-26T01:27:40.750Z,13.75
2022-12-26T01:30:08.593Z,10.98
2022-12-26T01:32:36.239Z,10.93
2022-12-26T01:35:03.930Z,11.00
2022-12-26T01:37:31.473Z,10.48
2022-12-26T01:39:59.172Z,10.98
2022-12-26T01:42:39.334Z,11.63
2022-12-26T01:45:27.483Z,12.32
2022-12-26T01:48:12.172Z,10.95
2022-12-26T01:50:42.875Z,11.85
2022-12-26T01:53:29.332Z,11.88
2022-12-26T01:56:08.310Z,12.52
2022-12-26T01:58:47.577Z,12.43
2022-12-26T02:01:15.388Z,12.75
2022-12-26T02:04:04.227Z,12.48
2022-12-26T02:06:32.747Z,11.75
2022-12-26T02:09:00.374Z,13.07
2022-12-26T02:11:41.302Z,13.18
2022-12-26T02:14:09.293Z,13.07
2022-12-26T02:16:38.121Z,12.73
2022-12-26T02:19:09.430Z,13.05
2022-12-26T02:22:09.542Z,13.80
2022-12-26T02:24:36.887Z,13.60
2022-12-26T02:27:54.042Z,14.77
2022-12-26T02:30:46.575Z,15.75
2022-12-26T02:33:20.625Z,16.62
2022-12-26T02:36:06.454Z,18.10
2022-12-26T02:38:52.656Z,17.27
2022-12-26T02:41:47.181Z,19.52
2022-12-26T02:44:40.994Z,19.37
2022-12-26T02:47:18.085Z,19.70
2022-12-26T02:50:35.100Z,19.42
2022-12-26T02:53:54.477Z,18.00
2022-12-26T02:56:49.146Z,16.98
2022-12-26T03:00:00.184Z,18.87
2022-12-26T03:03:00.441Z,18.73
2022-12-26T03:05:50.394Z,19.12
2022-12-26T03:09:15.868Z,17.67
2022-12-26T03:12:04.648Z,17.80
2022-12-26T03:14:38.330Z,17.87
2022-12-26T03:17:19.928Z,17.50
2022-12-26T03:20:01.804Z,17.20
2022-12-26T03:22:35.234Z,16.73
2022-12-26T03:25:29.794Z,16.25
2022-12-26T03:27:58.497Z,16.85
2022-12-26T03:30:44.930Z,17.73
2022-12-26T03:33:30.695Z,17.55
2022-12-26T03:35:58.746Z,16.23
2022-12-26T03:38:51.122Z,17.45
2022-12-26T03:41:46.315Z,17.42
2022-12-26T03:44:35.445Z,15.98
2022-12-26T03:47:56.592Z,15.90
2022-12-26T03:50:54.172Z,16.85
2022-12-26T03:53:49.846Z,16.17
2022-12-26T03:56:40.524Z,16.62
2022-12-26T03:59:30.388Z,16.15
2022-12-26T04:02:19.977Z,16.27
2022-12-26T04:05:07.878Z,16.30
2022-12-26T04:07:59.461Z,16.98
2022-12-26T04:10:55.579Z,16.58
2022-12-26T04:13:49.687Z,17.02
2022-12-26T04:16:44.619Z,16.02
2022-12-26T04:19:27.401Z,16.60
2022-12-26T04:22:30.157Z,15.70
2022-12-26T04:25:49.576Z,15.90
2022-12-26T04:28:39.186Z,16.40
2022-12-26T04:31:33.437Z,17.05
2022-12-26T04:34:21.722Z,16.17
2022-12-26T04:37:19.441Z,17.15
2022-12-26T04:40:08.894Z,16.83
2022-12-26T04:42:55.902Z,16.15
2022-12-26T04:45:25.200Z,16.62
2022-12-26T04:48:11.168Z,16.48
2022-12-26T04:50:52.477Z,17.48
2022-12-26T04:53:20.332Z,17.60
2022-12-26T04:55:48.153Z,17.00
2022-12-26T04:58:15.930Z,16.65
2022-12-26T05:00:43.335Z,18.10
2022-12-26T05:03:32.380Z,18.30
2022-12-26T05:06:18.940Z,17.23
2022-12-26T05:09:06.274Z,17.58
2022-12-26T05:11:35.198Z,15.85
2022-12-26T05:14:02.874Z,16.60
2022-12-26T05:16:48.864Z,17.17
2022-12-26T05:19:36.452Z,16.87
2022-12-26T05:22:23.562Z,17.17
2022-12-26T05:25:10.805Z,17.40
2022-12-26T05:28:00.109Z,18.33
2022-12-26T05:30:28.392Z,18.95
2022-12-26T05:33:14.420Z,17.17
2022-12-26T05:35:42.179Z,18.17
2022-12-26T05:38:10.974Z,17.52
2022-12-26T05:40:38.400Z,18.05
2022-12-26T05:43:06.204Z,17.62
2022-12-26T05:45:33.587Z,17.25
2022-12-26T05:48:01.552Z,19.00
2022-12-26T05:50:29.567Z,18.67
2022-12-26T05:52:58.155Z,19.02
2022-12-26T05:55:26.130Z,17.52
2022-12-26T05:57:53.865Z,19.12
2022-12-26T06:00:21.545Z,17.60
2022-12-26T06:02:49.403Z,17.90
2022-12-26T06:05:17.260Z,17.55
2022-12-26T06:07:44.742Z,17.85
2022-12-26T06:10:12.774Z,18.05
2022-12-26T06:12:40.204Z,17.45
2022-12-26T06:15:08.052Z,18.80
2022-12-26T06:17:35.895Z,17.60
2022-12-26T06:20:03.595Z,18.20
2022-12-26T06:22:31.167Z,18.58
2022-12-26T06:24:58.932Z,18.95
2022-12-26T06:27:26.361Z,19.17
2022-12-26T06:29:53.762Z,18.52
2022-12-26T06:32:21.485Z,19.33
2022-12-26T06:34:48.921Z,19.02
2022-12-26T06:37:16.839Z,18.20
2022-12-26T06:39:44.513Z,18.45
2022-12-26T06:42:11.869Z,18.33
2022-12-26T06:44:39.340Z,19.98
2022-12-26T06:47:07.104Z,23.50
2022-12-26T06:49:34.530Z,26.15
2022-12-26T06:52:01.877Z,22.92
2022-12-26T06:54:29.574Z,18.65
2022-12-26T06:56:56.978Z,20.58
2022-12-26T06:59:24.338Z,18.35
2022-12-26T07:01:52.127Z,18.42
2022-12-26T07:04:19.625Z,18.45
2022-12-26T07:06:47.059Z,20.40
2022-12-26T07:09:17.147Z,21.00
2022-12-26T07:11:47.352Z,20.00
2022-12-26T07:14:15.118Z,19.20
2022-12-26T07:16:44.074Z,21.10
2022-12-26T07:19:13.439Z,20.58
2022-12-26T07:21:41.827Z,21.55
2022-12-26T07:24:17.241Z,20.50
2022-12-26T07:26:45.694Z,20.55
2022-12-26T07:29:13.470Z,20.88
2022-12-26T07:31:41.823Z,19.55
2022-12-26T07:34:09.668Z,20.17
2022-12-26T07:36:37.047Z,20.27
2022-12-26T07:39:04.514Z,20.65
2022-12-26T07:41:51.190Z,19.65
2022-12-26T07:44:18.832Z,19.25
2022-12-26T07:46:46.793Z,20.23
2022-12-26T07:49:14.663Z,20.50
2022-12-26T07:51:42.602Z,21.35
2022-12-26T07:54:11.548Z,19.23
2022-12-26T07:56:40.295Z,19.92
2022-12-26T07:59:09.805Z,20.35
2022-12-26T08:01:37.594Z,20.83
2022-12-26T08:04:05.321Z,20.67
2022-12-26T08:06:32.684Z,20.15
2022-12-26T08:09:00.330Z,19.90
2022-12-26T08:11:28.757Z,20.52
2022-12-26T08:13:56.211Z,20.92
2022-12-26T08:16:23.653Z,20.58
2022-12-26T08:18:51.438Z,23.08
2022-12-26T08:21:18.818Z,29.35
2022-12-26T08:23:48.227Z,30.40
2022-12-26T08:26:20.854Z,31.17
2022-12-26T08:31:16.135Z,23.95
2022-12-26T08:33:43.599Z,22.73
2022-12-26T08:36:12.940Z,20.12
2022-12-26T08:38:40.923Z,20.92
2022-12-26T08:41:08.819Z,23.40
2022-12-26T08:44:16.443Z,24.30
2022-12-26T08:46:24.726Z,24.30
2022-12-26T08:48:52.214Z,23.48
2022-12-26T08:51:22.367Z,23.02
2022-12-26T08:53:51.256Z,24.05
2022-12-26T08:56:26.661Z,23.95
2022-12-26T08:58:55.033Z,24.92
2022-12-26T09:01:24.731Z,24.90
2022-12-26T09:03:53.810Z,25.15
2022-12-26T09:06:22.047Z,25.10
2022-12-26T09:08:49.589Z,23.85
2022-12-26T09:11:22.802Z,24.52
2022-12-26T09:13:50.985Z,25.33
2022-12-26T09:16:23.840Z,24.58
2022-12-26T09:18:57.104Z,23.38
2022-12-26T09:21:24.933Z,22.92
2022-12-26T09:24:03.850Z,23.02
2022-12-26T09:26:32.046Z,25.52
2022-12-26T09:28:59.915Z,23.65
2022-12-26T09:31:32.950Z,21.27
2022-12-26T09:34:06.511Z,22.92
2022-12-26T09:36:38.206Z,24.23
2022-12-26T09:39:06.340Z,23.62
2022-12-26T09:41:51.823Z,23.92
2022-12-26T09:44:44.449Z,23.45
2022-12-26T09:48:03.444Z,24.25
2022-12-26T09:50:38.272Z,23.85
2022-12-26T09:53:13.941Z,22.05
2022-12-26T09:55:46.147Z,23.65
2022-12-26T09:58:24.829Z,24.98
2022-12-26T10:01:01.268Z,23.62
2022-12-26T10:03:37.825Z,23.73
2022-12-26T10:06:13.770Z,24.40
2022-12-26T10:08:59.568Z,23.92
2022-12-26T10:11:35.987Z,23.33
2022-12-26T10:14:26.422Z,24.52
2022-12-26T10:17:01.403Z,23.38
2022-12-26T10:19:37.654Z,23.42
2022-12-26T10:22:11.118Z,26.45
2022-12-26T10:24:40.429Z,26.35
2022-12-26T10:27:16.992Z,25.10
2022-12-26T10:30:04.388Z,24.65
2022-12-26T10:32:41.585Z,24.85
2022-12-26T10:35:21.475Z,22.60
2022-12-26T10:37:50.457Z,21.98
2022-12-26T10:40:25.136Z,22.23
2022-12-26T10:42:55.393Z,21.37
2022-12-26T10:45:48.017Z,22.02
2022-12-26T10:48:16.201Z,23.60
2022-12-26T10:50:47.836Z,22.65
2022-12-26T10:53:16.425Z,22.08
2022-12-26T10:55:44.258Z,22.52
2022-12-26T10:58:20.388Z,23.00
2022-12-26T11:00:48.067Z,23.12
2022-12-26T11:03:17.959Z,22.98
2022-12-26T11:06:11.371Z,22.33
2022-12-26T11:08:49.379Z,22.30
2022-12-26T11:11:26.448Z,22.42
2022-12-26T11:14:01.852Z,21.37
2022-12-26T11:16:40.343Z,20.42
2022-12-26T11:19:26.619Z,21.62
2022-12-26T11:21:53.990Z,21.12
2022-12-26T11:24:21.800Z,18.12
2022-12-26T11:26:49.299Z,18.92
2022-12-26T11:29:25.952Z,19.70
2022-12-26T11:31:58.281Z,19.10
2022-12-26T11:34:37.613Z,19.75
2022-12-26T11:37:06.405Z,16.15
2022-12-26T11:39:36.330Z,14.27
2022-12-26T11:42:11.914Z,14.60
2022-12-26T11:44:45.509Z,16.73
2022-12-26T11:47:25.737Z,18.10
2022-12-26T11:50:06.861Z,19.75
2022-12-26T11:52:52.856Z,22.95
2022-12-26T11:55:24.063Z,25.30
2022-12-26T11:58:19.333Z,25.02
2022-12-26T12:00:50.085Z,27.42
2022-12-26T12:03:32.350Z,26.08
2022-12-26T12:06:27.888Z,24.25
2022-12-26T12:09:32.917Z,25.10
2022-12-26T12:12:30.675Z,23.23
2022-12-26T12:15:57.125Z,19.60
2022-12-26T12:18:54.957Z,19.30
2022-12-26T12:21:28.438Z,19.08
2022-12-26T12:24:20.613Z,19.45
2022-12-26T12:27:13.543Z,20.08
2022-12-26T12:32:39.143Z,19.45
2022-12-26T12:35:18.701Z,18.90
2022-12-26T12:38:04.936Z,17.15
2022-12-26T12:41:01.815Z,16.52
2022-12-26T12:43:44.918Z,15.38
2022-12-26T12:46:40.929Z,15.85
2022-12-26T12:49:19.928Z,15.35
2022-12-26T12:52:02.325Z,15.05
2022-12-26T12:54:40.787Z,15.88
2022-12-26T12:57:16.447Z,16.58
2022-12-26T12:59:46.829Z,15.20
2022-12-26T13:02:23.885Z,21.12
2022-12-26T13:04:57.949Z,25.25
2022-12-26T13:07:31.371Z,25.95
2022-12-26T13:10:04.364Z,25.02
2022-12-26T13:12:42.647Z,23.73
2022-12-26T13:15:19.448Z,23.92
2022-12-26T13:17:56.444Z,24.87
2022-12-26T13:20:33.093Z,23.58
2022-12-26T13:23:32.446Z,27.05
2022-12-26T13:26:11.769Z,52.05
2022-12-26T13:29:03.345Z,48.30
2022-12-26T13:31:36.015Z,76.05
2022-12-26T13:34:05.422Z,70.65
2022-12-26T13:36:38.720Z,60.25
2022-12-26T13:39:12.200Z,44.47
2022-12-26T13:42:12.814Z,27.42
2022-12-26T13:44:40.928Z,29.08
2022-12-26T13:47:32.064Z,27.17
2022-12-26T13:50:37.956Z,25.92
2022-12-26T13:53:24.411Z,26.52
2022-12-26T13:55:56.953Z,26.62
2022-12-26T13:58:56.045Z,24.37
2022-12-26T14:01:29.593Z,27.37
2022-12-26T14:04:19.084Z,25.77
2022-12-26T14:07:05.186Z,23.80
2022-12-26T14:09:35.901Z,24.80
2022-12-26T14:12:15.355Z,24.75
2022-12-26T14:14:55.889Z,25.55
2022-12-26T14:17:26.217Z,24.67
2022-12-26T14:20:28.095Z,25.27
2022-12-26T14:23:07.512Z,25.50
2022-12-26T14:25:57.196Z,26.92
2022-12-26T14:28:31.401Z,29.15
2022-12-26T14:31:05.125Z,29.52
2022-12-26T14:33:38.569Z,28.67
2022-12-26T14:36:25.321Z,29.37
2022-12-26T14:39:03.819Z,31.12
2022-12-26T14:42:25.483Z,32.95
2022-12-26T14:44:58.312Z,31.73
2022-12-26T14:47:36.195Z,31.23
2022-12-26T14:50:39.187Z,31.27
2022-12-26T14:53:34.614Z,33.08
2022-12-26T14:56:08.087Z,31.55
2022-12-26T14:58:42.124Z,32.47
2022-12-26T15:01:09.665Z,32.35
2022-12-26T15:03:53.213Z,35.60
2022-12-26T15:06:20.591Z,34.35
2022-12-26T15:09:25.362Z,32.60
2022-12-26T15:12:12.804Z,35.97
2022-12-26T15:15:04.251Z,36.50
2022-12-26T15:18:06.533Z,42.75
2022-12-26T15:21:12.215Z,43.87
2022-12-26T15:23:50.364Z,43.08
2022-12-26T15:26:39.604Z,44.20
2022-12-26T15:29:44.249Z,43.35
2022-12-26T15:32:23.651Z,37.40
2022-12-26T15:34:57.913Z,34.72
2022-12-26T15:37:40.870Z,33.78
2022-12-26T15:40:24.442Z,32.67
2022-12-26T15:43:20.070Z,31.67
2022-12-26T15:46:05.202Z,32.33
2022-12-26T15:48:51.764Z,35.25
2022-12-26T15:51:32.804Z,32.67
2022-12-26T15:54:38.496Z,32.67
2022-12-26T15:57:21.729Z,31.90
2022-12-26T15:59:55.333Z,31.45
2022-12-26T16:02:25.587Z,35.35
2022-12-26T16:04:57.469Z,38.83
2022-12-26T16:07:32.295Z,38.63
2022-12-26T16:10:00.151Z,40.17
2022-12-26T16:12:29.101Z,39.90
2022-12-26T16:15:17.342Z,42.55
2022-12-26T16:17:46.572Z,40.20
2022-12-26T16:20:48.159Z,45.05
2022-12-26T16:23:21.454Z,44.55
2022-12-26T16:25:50.103Z,43.58
2022-12-26T16:28:25.471Z,45.97
2022-12-26T16:30:53.192Z,47.08
2022-12-26T16:33:20.938Z,54.28
2022-12-26T16:35:48.397Z,52.67
2022-12-26T16:38:20.049Z,58.90
2022-12-26T16:40:49.601Z,61.45
2022-12-26T16:43:31.288Z,57.20
2022-12-26T16:46:02.719Z,55.83
2022-12-26T16:48:32.194Z,55.40
2022-12-26T16:51:05.908Z,51.10
2022-12-26T16:53:36.023Z,49.67
2022-12-26T16:56:22.553Z,50.25
2022-12-26T16:59:19.825Z,46.22
2022-12-26T17:01:53.252Z,44.53
2022-12-26T17:04:23.667Z,40.95
2022-12-26T17:07:01.838Z,38.28
2022-12-26T17:09:32.754Z,37.97
2022-12-26T17:12:07.742Z,37.97
2022-12-26T17:14:38.094Z,34.70
2022-12-26T17:17:13.539Z,35.42
2022-12-26T17:19:41.060Z,36.67
2022-12-26T17:22:11.697Z,37.53
2022-12-26T17:24:39.171Z,37.90
2022-12-26T17:27:20.969Z,38.63
2022-12-26T17:29:51.495Z,37.72
2022-12-26T17:32:33.925Z,38.58
2022-12-26T17:35:05.269Z,37.45
2022-12-26T17:37:33.226Z,29.67
2022-12-26T17:40:15.731Z,44.20
2022-12-26T17:42:56.052Z,44.25
2022-12-26T17:45:25.464Z,46.75
2022-12-26T17:47:54.613Z,45.20
2022-12-26T17:50:23.955Z,45.95
2022-12-26T17:52:51.466Z,45.40
2022-12-26T17:55:25.210Z,45.65
2022-12-26T17:57:53.202Z,49.22
2022-12-26T18:00:24.656Z,50.03
2022-12-26T18:02:52.653Z,52.13
2022-12-26T18:05:20.569Z,52.42
2022-12-26T18:07:50.971Z,49.28
2022-12-26T18:10:24.784Z,48.92
2022-12-26T18:12:52.642Z,51.08
2022-12-26T18:15:20.793Z,50.38
2022-12-26T18:17:49.750Z,47.97
2022-12-26T18:20:23.678Z,50.58
2022-12-26T18:22:51.883Z,51.37
2022-12-26T18:25:22.420Z,51.90
2022-12-26T18:27:50.677Z,50.17
2022-12-26T18:30:21.862Z,65.20
2022-12-26T18:32:50.441Z,60.22
2022-12-26T18:35:18.872Z,52.42
2022-12-26T18:37:51.800Z,52.13
2022-12-26T18:40:28.796Z,58.67
2022-12-26T18:42:56.270Z,58.70
2022-12-26T18:45:24.044Z,55.35
2022-12-26T18:47:51.665Z,57.20
2022-12-26T18:50:19.478Z,59.05
2022-12-26T18:52:53.150Z,58.92
2022-12-26T18:55:22.924Z,58.25
2022-12-26T18:57:50.636Z,57.33
2022-12-26T19:00:19.105Z,60.65
2022-12-26T19:02:47.662Z,65.68
2022-12-26T19:05:21.730Z,65.68
2022-12-26T19:07:50.172Z,65.05
2022-12-26T19:10:19.941Z,64.00
2022-12-26T19:12:48.440Z,65.62
2022-12-26T19:15:16.339Z,62.60
2022-12-26T19:17:43.984Z,58.28
2022-12-26T19:20:23.184Z,53.55
2022-12-26T19:22:51.939Z,59.33
2022-12-26T19:25:20.780Z,55.35
2022-12-26T19:27:48.912Z,51.97
2022-12-26T19:30:18.144Z,54.30
2022-12-26T19:32:45.737Z,55.35
2022-12-26T19:35:14.168Z,41.37
2022-12-26T19:37:42.181Z,55.63
2022-12-26T19:40:11.188Z,48.50
2022-12-26T19:42:38.721Z,46.97
2022-12-26T19:45:09.110Z,50.38
2022-12-26T19:47:36.878Z,47.28
2022-12-26T19:50:05.782Z,44.95
2022-12-26T19:52:36.405Z,47.22
2022-12-26T19:55:06.008Z,49.30
2022-12-26T19:57:34.114Z,50.55
2022-12-26T20:00:01.776Z,46.85
2022-12-26T20:02:41.795Z,43.83
2022-12-26T20:05:10.066Z,43.92
2022-12-26T20:07:37.481Z,39.15
2022-12-26T20:10:05.518Z,37.13
2022-12-26T20:12:33.196Z,34.65
2022-12-26T20:15:00.561Z,28.58
2022-12-26T20:17:27.960Z,23.77
2022-12-26T20:19:55.739Z,24.58
2022-12-26T20:22:23.600Z,22.58
2022-12-26T20:24:51.000Z,21.83
2022-12-26T20:27:18.729Z,23.10
2022-12-26T20:29:46.095Z,21.50
2022-12-26T20:32:13.499Z,21.58
2022-12-26T20:34:41.178Z,20.58
2022-12-26T20:37:08.646Z,20.12
2022-12-26T20:39:36.411Z,20.30
2022-12-26T20:42:04.539Z,21.12
2022-12-26T20:44:31.931Z,21.48
2022-12-26T20:46:59.445Z,20.58
2022-12-26T20:49:27.248Z,20.55
2022-12-26T20:51:54.630Z,20.85
2022-12-26T20:54:22.728Z,21.37
2022-12-26T20:56:50.393Z,24.30
2022-12-26T20:59:18.046Z,23.87
2022-12-26T21:01:45.582Z,24.73
2022-12-26T21:04:19.484Z,29.90
2022-12-26T21:06:47.634Z,38.45
2022-12-26T21:09:15.481Z,36.92
2022-12-26T21:11:45.277Z,33.58
2022-12-26T21:14:16.715Z,32.90
2022-12-26T21:16:57.332Z,31.08
2022-12-26T21:19:26.846Z,30.15
2022-12-26T21:21:55.586Z,28.05
2022-12-26T21:24:26.629Z,27.00
2022-12-26T21:26:55.198Z,27.17
2022-12-26T21:29:28.709Z,27.17
2022-12-26T21:31:57.022Z,26.75
2022-12-26T21:34:26.605Z,27.05
2022-12-26T21:37:13.491Z,27.05
2022-12-26T21:39:41.756Z,27.15
2022-12-26T21:42:09.831Z,27.20
2022-12-26T21:44:37.629Z,29.02
2022-12-26T21:47:05.732Z,27.62
2022-12-26T21:49:33.233Z,27.23
2022-12-26T21:52:00.641Z,27.42
2022-12-26T21:54:49.345Z,26.62
2022-12-26T21:57:18.121Z,27.33
2022-12-26T21:59:58.291Z,27.55
2022-12-26T22:02:48.221Z,26.90
2022-12-26T22:05:17.272Z,26.83
2022-12-26T22:07:44.665Z,27.73
2022-12-26T22:10:32.566Z,27.27
2022-12-26T22:13:00.980Z,28.23
2022-12-26T22:15:47.064Z,26.45
2022-12-26T22:18:14.818Z,27.45
2022-12-26T22:20:44.548Z,27.98
2022-12-26T22:23:13.246Z,28.87
2022-12-26T22:25:40.942Z,29.48
2022-12-26T22:28:08.418Z,29.87
2022-12-26T22:30:35.767Z,29.00
2022-12-26T22:33:03.513Z,28.52
2022-12-26T22:35:30.928Z,28.92
2022-12-26T22:37:58.395Z,29.95
2022-12-26T22:40:26.070Z,29.20
2022-12-26T22:42:53.422Z,29.67
2022-12-26T22:45:20.772Z,31.55
2022-12-26T22:47:48.415Z,31.23
2022-12-26T22:50:18.629Z,28.80
2022-12-26T22:52:46.034Z,30.90
2022-12-26T22:55:14.413Z,32.08
2022-12-26T22:57:42.214Z,33.05
2022-12-26T23:00:12.510Z,37.45
2022-12-26T23:02:40.348Z,33.90
2022-12-26T23:05:10.514Z,34.15
2022-12-26T23:07:38.474Z,33.33
2022-12-26T23:10:07.492Z,32.70
2022-12-26T23:12:44.266Z,30.02
2022-12-26T23:15:14.636Z,28.98
2022-12-26T23:18:05.922Z,31.35
2022-12-26T23:20:55.035Z,30.58
2022-12-26T23:23:23.327Z,31.73
2022-12-26T23:25:51.108Z,30.00
2022-12-26T23:28:37.207Z,30.05
2022-12-26T23:31:05.028Z,30.73
2022-12-26T23:33:32.580Z,30.23
2022-12-26T23:36:01.005Z,30.45
2022-12-26T23:38:28.797Z,29.30
2022-12-26T23:40:56.243Z,29.23
2022-12-26T23:43:23.891Z,32.05
2022-12-26T23:45:51.587Z,28.52
2022-12-26T23:48:19.039Z,25.50
2022-12-26T23:50:46.493Z,23.95
2022-12-26T23:53:14.209Z,22.65
2022-12-26T23:55:42.522Z,22.55
2022-12-26T23:58:10.026Z,22.77
